sensor_id;sensor_type;location;lat;lon;timestamp;P1;durP1;ratioP1;P2;durP2;ratioP2
59492;SDS011;45497;43.996;22.876;2023-07-08T00:00:42;26.55;;;8.27;;
59492;SDS011;45497;43.996;22.876;2023-07-08T00:03:08;26.92;;;8.30;;
59492;SDS011;45497;43.996;22.876;2023-07-08T00:05:34;28.33;;;8.60;;
59492;SDS011;45497;43.996;22.876;2023-07-08T00:08:00;28.65;;;9.05;;
59492;SDS011;45497;43.996;22.876;2023-07-08T00:10:27;24.73;;;8.30;;
59492;SDS011;45497;43.996;22.876;2023-07-08T00:12:54;29.70;;;8.68;;
59492;SDS011;45497;43.996;22.876;2023-07-08T00:15:29;27.75;;;8.80;;
59492;SDS011;45497;43.996;22.876;2023-07-08T00:17:59;31.63;;;8.98;;
59492;SDS011;45497;43.996;22.876;2023-07-08T00:20:32;34.67;;;9.10;;
59492;SDS011;45497;43.996;22.876;2023-07-08T00:23:02;26.65;;;7.82;;
59492;SDS011;45497;43.996;22.876;2023-07-08T00:25:28;26.67;;;7.90;;
59492;SDS011;45497;43.996;22.876;2023-07-08T00:27:54;28.45;;;8.23;;
59492;SDS011;45497;43.996;22.876;2023-07-08T00:30:24;27.33;;;7.67;;
59492;SDS011;45497;43.996;22.876;2023-07-08T00:32:49;27.58;;;7.70;;
59492;SDS011;45497;43.996;22.876;2023-07-08T00:35:19;28.83;;;8.30;;
59492;SDS011;45497;43.996;22.876;2023-07-08T00:37:51;28.27;;;8.15;;
59492;SDS011;45497;43.996;22.876;2023-07-08T00:40:18;27.65;;;7.95;;
59492;SDS011;45497;43.996;22.876;2023-07-08T00:42:46;28.73;;;8.30;;
59492;SDS011;45497;43.996;22.876;2023-07-08T00:45:18;32.50;;;8.43;;
59492;SDS011;45497;43.996;22.876;2023-07-08T00:47:55;29.10;;;8.25;;
59492;SDS011;45497;43.996;22.876;2023-07-08T00:50:25;27.30;;;7.83;;
59492;SDS011;45497;43.996;22.876;2023-07-08T00:52:50;23.98;;;7.22;;
59492;SDS011;45497;43.996;22.876;2023-07-08T00:55:53;32.25;;;8.70;;
59492;SDS011;45497;43.996;22.876;2023-07-08T00:58:22;25.58;;;7.45;;
59492;SDS011;45497;43.996;22.876;2023-07-08T01:00:50;24.40;;;7.50;;
59492;SDS011;45497;43.996;22.876;2023-07-08T01:03:18;25.92;;;7.32;;
59492;SDS011;45497;43.996;22.876;2023-07-08T01:05:48;31.87;;;8.07;;
59492;SDS011;45497;43.996;22.876;2023-07-08T01:08:17;30.17;;;8.20;;
59492;SDS011;45497;43.996;22.876;2023-07-08T01:10:43;33.65;;;8.25;;
59492;SDS011;45497;43.996;22.876;2023-07-08T01:13:13;28.17;;;8.15;;
59492;SDS011;45497;43.996;22.876;2023-07-08T01:15:41;25.88;;;7.38;;
59492;SDS011;45497;43.996;22.876;2023-07-08T01:18:10;27.83;;;7.73;;
59492;SDS011;45497;43.996;22.876;2023-07-08T01:20:41;28.77;;;7.87;;
59492;SDS011;45497;43.996;22.876;2023-07-08T01:23:07;20.45;;;6.63;;
59492;SDS011;45497;43.996;22.876;2023-07-08T01:25:36;23.92;;;7.18;;
59492;SDS011;45497;43.996;22.876;2023-07-08T01:28:02;23.95;;;7.15;;
59492;SDS011;45497;43.996;22.876;2023-07-08T01:30:29;25.65;;;7.20;;
59492;SDS011;45497;43.996;22.876;2023-07-08T01:32:56;31.95;;;7.57;;
59492;SDS011;45497;43.996;22.876;2023-07-08T01:35:25;23.53;;;6.93;;
59492;SDS011;45497;43.996;22.876;2023-07-08T01:37:52;27.02;;;7.45;;
59492;SDS011;45497;43.996;22.876;2023-07-08T01:40:29;25.88;;;6.95;;
59492;SDS011;45497;43.996;22.876;2023-07-08T01:42:57;24.40;;;6.90;;
59492;SDS011;45497;43.996;22.876;2023-07-08T01:45:25;23.25;;;6.63;;
59492;SDS011;45497;43.996;22.876;2023-07-08T01:47:58;27.63;;;7.35;;
59492;SDS011;45497;43.996;22.876;2023-07-08T01:50:27;26.38;;;7.00;;
59492;SDS011;45497;43.996;22.876;2023-07-08T01:52:55;25.05;;;6.53;;
59492;SDS011;45497;43.996;22.876;2023-07-08T01:55:23;28.15;;;7.07;;
59492;SDS011;45497;43.996;22.876;2023-07-08T01:57:50;26.52;;;6.88;;
59492;SDS011;45497;43.996;22.876;2023-07-08T02:00:17;28.13;;;6.97;;
59492;SDS011;45497;43.996;22.876;2023-07-08T02:02:44;26.77;;;6.93;;
59492;SDS011;45497;43.996;22.876;2023-07-08T02:05:10;25.80;;;6.70;;
59492;SDS011;45497;43.996;22.876;2023-07-08T02:07:35;25.52;;;6.47;;
59492;SDS011;45497;43.996;22.876;2023-07-08T02:10:01;23.03;;;6.13;;
59492;SDS011;45497;43.996;22.876;2023-07-08T02:12:26;24.85;;;6.55;;
59492;SDS011;45497;43.996;22.876;2023-07-08T02:14:52;30.60;;;8.07;;
59492;SDS011;45497;43.996;22.876;2023-07-08T02:17:17;27.05;;;6.60;;
59492;SDS011;45497;43.996;22.876;2023-07-08T02:19:43;28.73;;;6.80;;
59492;SDS011;45497;43.996;22.876;2023-07-08T02:22:09;26.55;;;6.90;;
59492;SDS011;45497;43.996;22.876;2023-07-08T02:24:35;23.58;;;6.65;;
59492;SDS011;45497;43.996;22.876;2023-07-08T02:27:00;28.23;;;7.03;;
59492;SDS011;45497;43.996;22.876;2023-07-08T02:29:26;21.20;;;5.97;;
59492;SDS011;45497;43.996;22.876;2023-07-08T02:31:52;25.90;;;6.50;;
59492;SDS011;45497;43.996;22.876;2023-07-08T02:34:17;25.92;;;6.55;;
59492;SDS011;45497;43.996;22.876;2023-07-08T02:36:43;23.90;;;6.37;;
59492;SDS011;45497;43.996;22.876;2023-07-08T02:39:09;23.35;;;6.35;;
59492;SDS011;45497;43.996;22.876;2023-07-08T02:41:36;25.33;;;6.03;;
59492;SDS011;45497;43.996;22.876;2023-07-08T02:44:02;24.98;;;5.90;;
59492;SDS011;45497;43.996;22.876;2023-07-08T02:46:27;26.73;;;6.40;;
59492;SDS011;45497;43.996;22.876;2023-07-08T02:48:53;27.43;;;6.53;;
59492;SDS011;45497;43.996;22.876;2023-07-08T02:51:18;20.47;;;5.60;;
59492;SDS011;45497;43.996;22.876;2023-07-08T02:53:44;25.45;;;6.07;;
59492;SDS011;45497;43.996;22.876;2023-07-08T02:56:09;29.93;;;7.40;;
59492;SDS011;45497;43.996;22.876;2023-07-08T02:58:35;29.90;;;6.33;;
59492;SDS011;45497;43.996;22.876;2023-07-08T03:01:00;26.65;;;6.38;;
59492;SDS011;45497;43.996;22.876;2023-07-08T03:03:26;21.17;;;5.77;;
59492;SDS011;45497;43.996;22.876;2023-07-08T03:05:59;22.90;;;5.70;;
59492;SDS011;45497;43.996;22.876;2023-07-08T03:08:27;20.98;;;5.32;;
59492;SDS011;45497;43.996;22.876;2023-07-08T03:10:56;19.40;;;5.47;;
59492;SDS011;45497;43.996;22.876;2023-07-08T03:13:27;20.60;;;5.75;;
59492;SDS011;45497;43.996;22.876;2023-07-08T03:15:53;21.40;;;5.57;;
59492;SDS011;45497;43.996;22.876;2023-07-08T03:18:22;21.87;;;5.37;;
59492;SDS011;45497;43.996;22.876;2023-07-08T03:20:52;19.58;;;5.97;;
59492;SDS011;45497;43.996;22.876;2023-07-08T03:23:18;15.73;;;4.75;;
59492;SDS011;45497;43.996;22.876;2023-07-08T03:25:44;17.77;;;4.97;;
59492;SDS011;45497;43.996;22.876;2023-07-08T03:28:09;17.87;;;5.20;;
59492;SDS011;45497;43.996;22.876;2023-07-08T03:30:40;17.52;;;5.53;;
59492;SDS011;45497;43.996;22.876;2023-07-08T03:33:05;18.45;;;5.18;;
59492;SDS011;45497;43.996;22.876;2023-07-08T03:35:31;16.57;;;5.40;;
59492;SDS011;45497;43.996;22.876;2023-07-08T03:37:56;19.70;;;5.30;;
59492;SDS011;45497;43.996;22.876;2023-07-08T03:40:22;16.03;;;4.67;;
59492;SDS011;45497;43.996;22.876;2023-07-08T03:42:47;26.40;;;5.70;;
59492;SDS011;45497;43.996;22.876;2023-07-08T03:45:13;24.57;;;5.80;;
59492;SDS011;45497;43.996;22.876;2023-07-08T03:47:38;23.80;;;5.60;;
59492;SDS011;45497;43.996;22.876;2023-07-08T03:50:04;23.57;;;5.50;;
59492;SDS011;45497;43.996;22.876;2023-07-08T03:52:30;19.05;;;4.97;;
59492;SDS011;45497;43.996;22.876;2023-07-08T03:54:56;17.85;;;5.05;;
59492;SDS011;45497;43.996;22.876;2023-07-08T03:57:21;15.90;;;4.83;;
59492;SDS011;45497;43.996;22.876;2023-07-08T03:59:47;16.53;;;4.87;;
59492;SDS011;45497;43.996;22.876;2023-07-08T04:02:12;16.75;;;4.47;;
59492;SDS011;45497;43.996;22.876;2023-07-08T04:04:38;21.73;;;5.10;;
59492;SDS011;45497;43.996;22.876;2023-07-08T04:07:04;18.83;;;4.72;;
59492;SDS011;45497;43.996;22.876;2023-07-08T04:09:30;21.67;;;4.95;;
59492;SDS011;45497;43.996;22.876;2023-07-08T04:11:55;18.03;;;4.83;;
59492;SDS011;45497;43.996;22.876;2023-07-08T04:14:22;17.75;;;4.93;;
59492;SDS011;45497;43.996;22.876;2023-07-08T04:16:50;18.67;;;4.77;;
59492;SDS011;45497;43.996;22.876;2023-07-08T04:19:19;18.48;;;4.50;;
59492;SDS011;45497;43.996;22.876;2023-07-08T04:21:47;17.10;;;4.38;;
59492;SDS011;45497;43.996;22.876;2023-07-08T04:24:13;19.07;;;4.63;;
59492;SDS011;45497;43.996;22.876;2023-07-08T04:26:40;17.88;;;4.65;;
59492;SDS011;45497;43.996;22.876;2023-07-08T04:29:10;20.80;;;4.97;;
59492;SDS011;45497;43.996;22.876;2023-07-08T04:31:37;17.63;;;4.30;;
59492;SDS011;45497;43.996;22.876;2023-07-08T04:34:02;17.65;;;4.53;;
59492;SDS011;45497;43.996;22.876;2023-07-08T04:36:27;17.47;;;4.47;;
59492;SDS011;45497;43.996;22.876;2023-07-08T04:38:53;17.33;;;4.40;;
59492;SDS011;45497;43.996;22.876;2023-07-08T04:41:18;20.93;;;4.80;;
59492;SDS011;45497;43.996;22.876;2023-07-08T04:43:44;24.63;;;5.45;;
59492;SDS011;45497;43.996;22.876;2023-07-08T04:46:15;15.30;;;4.60;;
59492;SDS011;45497;43.996;22.876;2023-07-08T04:48:47;18.00;;;4.53;;
59492;SDS011;45497;43.996;22.876;2023-07-08T04:51:13;22.17;;;4.72;;
59492;SDS011;45497;43.996;22.876;2023-07-08T04:53:39;20.08;;;5.18;;
59492;SDS011;45497;43.996;22.876;2023-07-08T04:56:04;14.03;;;4.00;;
59492;SDS011;45497;43.996;22.876;2023-07-08T04:58:30;20.02;;;4.70;;
59492;SDS011;45497;43.996;22.876;2023-07-08T05:00:55;16.97;;;4.20;;
59492;SDS011;45497;43.996;22.876;2023-07-08T05:03:20;21.73;;;4.53;;
59492;SDS011;45497;43.996;22.876;2023-07-08T05:05:46;20.00;;;4.40;;
59492;SDS011;45497;43.996;22.876;2023-07-08T05:08:11;23.70;;;4.93;;
59492;SDS011;45497;43.996;22.876;2023-07-08T05:10:37;17.60;;;4.13;;
59492;SDS011;45497;43.996;22.876;2023-07-08T05:13:03;20.73;;;4.47;;
59492;SDS011;45497;43.996;22.876;2023-07-08T05:15:30;18.15;;;4.57;;
59492;SDS011;45497;43.996;22.876;2023-07-08T05:17:55;13.37;;;3.57;;
59492;SDS011;45497;43.996;22.876;2023-07-08T05:20:21;18.07;;;4.23;;
59492;SDS011;45497;43.996;22.876;2023-07-08T05:22:47;19.10;;;3.92;;
59492;SDS011;45497;43.996;22.876;2023-07-08T05:25:13;21.10;;;4.37;;
59492;SDS011;45497;43.996;22.876;2023-07-08T05:27:39;11.98;;;3.58;;
59492;SDS011;45497;43.996;22.876;2023-07-08T05:30:06;14.10;;;3.60;;
59492;SDS011;45497;43.996;22.876;2023-07-08T05:32:52;13.93;;;3.53;;
59492;SDS011;45497;43.996;22.876;2023-07-08T05:35:18;15.05;;;3.78;;
59492;SDS011;45497;43.996;22.876;2023-07-08T05:37:44;14.38;;;3.58;;
59492;SDS011;45497;43.996;22.876;2023-07-08T05:40:12;10.80;;;3.40;;
59492;SDS011;45497;43.996;22.876;2023-07-08T05:42:37;13.43;;;3.17;;
59492;SDS011;45497;43.996;22.876;2023-07-08T05:45:03;14.70;;;3.37;;
59492;SDS011;45497;43.996;22.876;2023-07-08T05:47:31;12.63;;;2.95;;
59492;SDS011;45497;43.996;22.876;2023-07-08T05:49:57;15.87;;;4.03;;
59492;SDS011;45497;43.996;22.876;2023-07-08T05:52:22;16.38;;;3.72;;
59492;SDS011;45497;43.996;22.876;2023-07-08T05:54:48;10.63;;;3.03;;
59492;SDS011;45497;43.996;22.876;2023-07-08T05:57:13;15.30;;;3.73;;
59492;SDS011;45497;43.996;22.876;2023-07-08T05:59:39;12.27;;;3.53;;
59492;SDS011;45497;43.996;22.876;2023-07-08T06:02:05;12.90;;;3.37;;
59492;SDS011;45497;43.996;22.876;2023-07-08T06:04:31;14.00;;;3.08;;
59492;SDS011;45497;43.996;22.876;2023-07-08T06:06:57;15.45;;;3.28;;
59492;SDS011;45497;43.996;22.876;2023-07-08T06:09:23;17.70;;;3.90;;
59492;SDS011;45497;43.996;22.876;2023-07-08T06:11:48;16.50;;;3.57;;
59492;SDS011;45497;43.996;22.876;2023-07-08T06:14:14;14.60;;;2.83;;
59492;SDS011;45497;43.996;22.876;2023-07-08T06:16:39;15.23;;;3.00;;
59492;SDS011;45497;43.996;22.876;2023-07-08T06:19:05;11.35;;;3.20;;
59492;SDS011;45497;43.996;22.876;2023-07-08T06:21:31;12.93;;;3.15;;
59492;SDS011;45497;43.996;22.876;2023-07-08T06:23:56;12.98;;;3.13;;
59492;SDS011;45497;43.996;22.876;2023-07-08T06:26:22;14.87;;;2.83;;
59492;SDS011;45497;43.996;22.876;2023-07-08T06:28:48;13.88;;;3.08;;
59492;SDS011;45497;43.996;22.876;2023-07-08T06:31:14;8.83;;;2.33;;
59492;SDS011;45497;43.996;22.876;2023-07-08T06:33:39;18.05;;;3.25;;
59492;SDS011;45497;43.996;22.876;2023-07-08T06:36:05;18.05;;;3.15;;
59492;SDS011;45497;43.996;22.876;2023-07-08T06:38:31;11.35;;;2.70;;
59492;SDS011;45497;43.996;22.876;2023-07-08T06:40:57;10.13;;;2.33;;
59492;SDS011;45497;43.996;22.876;2023-07-08T06:43:22;15.35;;;3.10;;
59492;SDS011;45497;43.996;22.876;2023-07-08T06:45:48;15.18;;;2.85;;
59492;SDS011;45497;43.996;22.876;2023-07-08T06:48:13;14.63;;;3.27;;
59492;SDS011;45497;43.996;22.876;2023-07-08T06:50:41;15.50;;;3.10;;
59492;SDS011;45497;43.996;22.876;2023-07-08T06:53:08;14.82;;;2.85;;
59492;SDS011;45497;43.996;22.876;2023-07-08T06:55:33;14.03;;;2.97;;
59492;SDS011;45497;43.996;22.876;2023-07-08T06:57:59;12.23;;;2.90;;
59492;SDS011;45497;43.996;22.876;2023-07-08T07:00:24;12.27;;;2.80;;
59492;SDS011;45497;43.996;22.876;2023-07-08T07:02:50;12.37;;;2.90;;
59492;SDS011;45497;43.996;22.876;2023-07-08T07:05:15;13.18;;;2.78;;
59492;SDS011;45497;43.996;22.876;2023-07-08T07:07:41;10.13;;;2.97;;
59492;SDS011;45497;43.996;22.876;2023-07-08T07:10:06;12.93;;;2.97;;
59492;SDS011;45497;43.996;22.876;2023-07-08T07:12:33;12.40;;;2.72;;
59492;SDS011;45497;43.996;22.876;2023-07-08T07:14:59;15.38;;;3.25;;
59492;SDS011;45497;43.996;22.876;2023-07-08T07:17:25;15.07;;;3.65;;
59492;SDS011;45497;43.996;22.876;2023-07-08T07:19:52;12.43;;;3.50;;
59492;SDS011;45497;43.996;22.876;2023-07-08T07:22:18;9.70;;;2.75;;
59492;SDS011;45497;43.996;22.876;2023-07-08T07:24:44;10.27;;;2.83;;
59492;SDS011;45497;43.996;22.876;2023-07-08T07:27:10;10.23;;;2.80;;
59492;SDS011;45497;43.996;22.876;2023-07-08T07:29:42;7.70;;;3.53;;
59492;SDS011;45497;43.996;22.876;2023-07-08T07:32:10;12.60;;;2.97;;
59492;SDS011;45497;43.996;22.876;2023-07-08T07:34:36;9.93;;;2.90;;
59492;SDS011;45497;43.996;22.876;2023-07-08T07:37:03;9.20;;;2.40;;
59492;SDS011;45497;43.996;22.876;2023-07-08T07:39:29;11.00;;;3.35;;
59492;SDS011;45497;43.996;22.876;2023-07-08T07:41:54;12.20;;;3.03;;
59492;SDS011;45497;43.996;22.876;2023-07-08T07:44:20;11.77;;;2.87;;
59492;SDS011;45497;43.996;22.876;2023-07-08T07:46:45;6.43;;;2.63;;
59492;SDS011;45497;43.996;22.876;2023-07-08T07:49:12;10.90;;;3.03;;
59492;SDS011;45497;43.996;22.876;2023-07-08T07:51:37;14.13;;;3.90;;
59492;SDS011;45497;43.996;22.876;2023-07-08T07:54:03;11.60;;;3.13;;
59492;SDS011;45497;43.996;22.876;2023-07-08T07:56:28;9.67;;;3.40;;
59492;SDS011;45497;43.996;22.876;2023-07-08T07:58:54;7.40;;;2.53;;
59492;SDS011;45497;43.996;22.876;2023-07-08T08:01:19;8.13;;;2.87;;
59492;SDS011;45497;43.996;22.876;2023-07-08T08:03:45;11.63;;;2.88;;
59492;SDS011;45497;43.996;22.876;2023-07-08T08:06:10;12.45;;;3.30;;
59492;SDS011;45497;43.996;22.876;2023-07-08T08:08:36;13.07;;;3.30;;
59492;SDS011;45497;43.996;22.876;2023-07-08T08:11:01;12.10;;;3.27;;
59492;SDS011;45497;43.996;22.876;2023-07-08T08:13:27;8.47;;;2.50;;
59492;SDS011;45497;43.996;22.876;2023-07-08T08:15:56;11.77;;;3.00;;
59492;SDS011;45497;43.996;22.876;2023-07-08T08:18:22;11.55;;;3.50;;
59492;SDS011;45497;43.996;22.876;2023-07-08T08:20:49;10.33;;;2.93;;
59492;SDS011;45497;43.996;22.876;2023-07-08T08:23:15;12.40;;;3.47;;
59492;SDS011;45497;43.996;22.876;2023-07-08T08:25:41;12.90;;;3.42;;
59492;SDS011;45497;43.996;22.876;2023-07-08T08:28:06;8.23;;;3.00;;
59492;SDS011;45497;43.996;22.876;2023-07-08T08:30:32;9.20;;;2.70;;
59492;SDS011;45497;43.996;22.876;2023-07-08T08:32:58;12.77;;;2.97;;
59492;SDS011;45497;43.996;22.876;2023-07-08T08:35:23;11.68;;;3.28;;
59492;SDS011;45497;43.996;22.876;2023-07-08T08:37:49;11.57;;;3.07;;
59492;SDS011;45497;43.996;22.876;2023-07-08T08:40:15;12.50;;;3.03;;
59492;SDS011;45497;43.996;22.876;2023-07-08T08:42:46;11.77;;;3.15;;
59492;SDS011;45497;43.996;22.876;2023-07-08T08:45:18;17.25;;;3.60;;
59492;SDS011;45497;43.996;22.876;2023-07-08T08:47:47;13.73;;;3.30;;
59492;SDS011;45497;43.996;22.876;2023-07-08T08:50:29;12.40;;;3.20;;
59492;SDS011;45497;43.996;22.876;2023-07-08T08:52:55;10.00;;;2.97;;
59492;SDS011;45497;43.996;22.876;2023-07-08T08:55:22;11.03;;;2.87;;
59492;SDS011;45497;43.996;22.876;2023-07-08T09:01:13;8.52;;;2.42;;
59492;SDS011;45497;43.996;22.876;2023-07-08T09:06:15;12.63;;;3.03;;
59492;SDS011;45497;43.996;22.876;2023-07-08T09:08:44;9.07;;;2.85;;
59492;SDS011;45497;43.996;22.876;2023-07-08T09:11:15;10.25;;;2.55;;
59492;SDS011;45497;43.996;22.876;2023-07-08T09:13:47;8.05;;;2.80;;
59492;SDS011;45497;43.996;22.876;2023-07-08T09:21:37;12.80;;;3.30;;
59492;SDS011;45497;43.996;22.876;2023-07-08T09:24:14;9.43;;;2.40;;
59492;SDS011;45497;43.996;22.876;2023-07-08T09:26:44;9.32;;;2.63;;
59492;SDS011;45497;43.996;22.876;2023-07-08T09:29:12;10.90;;;2.70;;
59492;SDS011;45497;43.996;22.876;2023-07-08T09:31:40;10.75;;;2.83;;
59492;SDS011;45497;43.996;22.876;2023-07-08T09:34:22;8.87;;;2.60;;
59492;SDS011;45497;43.996;22.876;2023-07-08T09:36:49;10.63;;;2.77;;
59492;SDS011;45497;43.996;22.876;2023-07-08T09:39:17;11.32;;;2.83;;
59492;SDS011;45497;43.996;22.876;2023-07-08T09:41:45;11.38;;;3.15;;
59492;SDS011;45497;43.996;22.876;2023-07-08T09:46:53;8.95;;;2.70;;
59492;SDS011;45497;43.996;22.876;2023-07-08T09:51:48;9.27;;;2.78;;
59492;SDS011;45497;43.996;22.876;2023-07-08T09:54:17;10.98;;;2.97;;
59492;SDS011;45497;43.996;22.876;2023-07-08T09:56:50;11.65;;;2.88;;
59492;SDS011;45497;43.996;22.876;2023-07-08T09:59:32;10.85;;;2.75;;
59492;SDS011;45497;43.996;22.876;2023-07-08T10:02:02;14.40;;;3.60;;
59492;SDS011;45497;43.996;22.876;2023-07-08T10:04:42;11.48;;;3.75;;
59492;SDS011;45497;43.996;22.876;2023-07-08T10:07:09;11.67;;;3.80;;
59492;SDS011;45497;43.996;22.876;2023-07-08T10:09:41;12.30;;;3.30;;
59492;SDS011;45497;43.996;22.876;2023-07-08T10:12:08;13.20;;;3.10;;
59492;SDS011;45497;43.996;22.876;2023-07-08T10:14:39;12.90;;;3.40;;
59492;SDS011;45497;43.996;22.876;2023-07-08T10:17:18;10.68;;;3.22;;
59492;SDS011;45497;43.996;22.876;2023-07-08T10:19:45;12.35;;;3.28;;
59492;SDS011;45497;43.996;22.876;2023-07-08T10:22:16;10.07;;;2.93;;
59492;SDS011;45497;43.996;22.876;2023-07-08T10:25:16;14.13;;;3.85;;
59492;SDS011;45497;43.996;22.876;2023-07-08T10:33:06;13.38;;;3.70;;
59492;SDS011;45497;43.996;22.876;2023-07-08T10:35:47;12.73;;;3.55;;
59492;SDS011;45497;43.996;22.876;2023-07-08T10:49:36;8.70;;;2.80;;
59492;SDS011;45497;43.996;22.876;2023-07-08T10:55:01;10.23;;;3.10;;
59492;SDS011;45497;43.996;22.876;2023-07-08T11:04:14;15.43;;;3.42;;
59492;SDS011;45497;43.996;22.876;2023-07-08T11:17:51;11.70;;;2.77;;
59492;SDS011;45497;43.996;22.876;2023-07-08T11:23:44;12.82;;;2.53;;
59492;SDS011;45497;43.996;22.876;2023-07-08T11:28:43;11.00;;;2.60;;
59492;SDS011;45497;43.996;22.876;2023-07-08T11:31:09;10.73;;;3.00;;
59492;SDS011;45497;43.996;22.876;2023-07-08T11:33:36;12.00;;;3.15;;
59492;SDS011;45497;43.996;22.876;2023-07-08T11:36:03;8.80;;;2.53;;
59492;SDS011;45497;43.996;22.876;2023-07-08T11:38:31;7.55;;;2.65;;
59492;SDS011;45497;43.996;22.876;2023-07-08T11:41:04;12.40;;;3.13;;
59492;SDS011;45497;43.996;22.876;2023-07-08T11:43:55;11.30;;;2.78;;
59492;SDS011;45497;43.996;22.876;2023-07-08T11:46:28;10.60;;;2.80;;
59492;SDS011;45497;43.996;22.876;2023-07-08T11:49:09;12.73;;;3.40;;
59492;SDS011;45497;43.996;22.876;2023-07-08T11:51:39;12.68;;;3.05;;
59492;SDS011;45497;43.996;22.876;2023-07-08T11:54:17;14.88;;;3.38;;
59492;SDS011;45497;43.996;22.876;2023-07-08T11:59:25;15.82;;;3.40;;
59492;SDS011;45497;43.996;22.876;2023-07-08T12:01:54;13.50;;;3.30;;
59492;SDS011;45497;43.996;22.876;2023-07-08T12:04:28;10.02;;;3.15;;
59492;SDS011;45497;43.996;22.876;2023-07-08T12:07:09;8.87;;;2.70;;
59492;SDS011;45497;43.996;22.876;2023-07-08T12:12:51;19.25;;;3.65;;
59492;SDS011;45497;43.996;22.876;2023-07-08T12:15:23;14.03;;;3.17;;
59492;SDS011;45497;43.996;22.876;2023-07-08T12:17:55;10.52;;;3.03;;
59492;SDS011;45497;43.996;22.876;2023-07-08T12:20:25;12.10;;;3.08;;
59492;SDS011;45497;43.996;22.876;2023-07-08T12:22:53;12.40;;;3.30;;
59492;SDS011;45497;43.996;22.876;2023-07-08T12:25:22;8.63;;;2.90;;
59492;SDS011;45497;43.996;22.876;2023-07-08T12:27:49;11.45;;;2.83;;
59492;SDS011;45497;43.996;22.876;2023-07-08T12:30:15;14.10;;;3.60;;
59492;SDS011;45497;43.996;22.876;2023-07-08T12:32:41;10.00;;;2.70;;
59492;SDS011;45497;43.996;22.876;2023-07-08T12:35:19;16.17;;;4.13;;
59492;SDS011;45497;43.996;22.876;2023-07-08T12:37:52;12.27;;;2.90;;
59492;SDS011;45497;43.996;22.876;2023-07-08T12:40:20;9.48;;;3.03;;
59492;SDS011;45497;43.996;22.876;2023-07-08T12:42:47;11.38;;;3.30;;
59492;SDS011;45497;43.996;22.876;2023-07-08T12:45:13;17.30;;;4.30;;
59492;SDS011;45497;43.996;22.876;2023-07-08T12:47:44;12.80;;;3.30;;
59492;SDS011;45497;43.996;22.876;2023-07-08T12:50:11;12.73;;;3.38;;
59492;SDS011;45497;43.996;22.876;2023-07-08T12:52:38;13.00;;;3.03;;
59492;SDS011;45497;43.996;22.876;2023-07-08T12:55:04;14.65;;;3.33;;
59492;SDS011;45497;43.996;22.876;2023-07-08T12:57:31;8.88;;;2.88;;
59492;SDS011;45497;43.996;22.876;2023-07-08T12:59:57;12.48;;;3.40;;
59492;SDS011;45497;43.996;22.876;2023-07-08T13:02:23;7.40;;;2.97;;
59492;SDS011;45497;43.996;22.876;2023-07-08T13:04:56;10.90;;;3.15;;
59492;SDS011;45497;43.996;22.876;2023-07-08T13:07:38;14.00;;;3.60;;
59492;SDS011;45497;43.996;22.876;2023-07-08T13:10:06;8.88;;;3.10;;
59492;SDS011;45497;43.996;22.876;2023-07-08T13:12:40;12.73;;;3.42;;
59492;SDS011;45497;43.996;22.876;2023-07-08T13:15:08;13.93;;;3.78;;
59492;SDS011;45497;43.996;22.876;2023-07-08T13:17:43;13.88;;;3.33;;
59492;SDS011;45497;43.996;22.876;2023-07-08T13:20:13;12.68;;;3.15;;
59492;SDS011;45497;43.996;22.876;2023-07-08T13:22:40;7.78;;;2.70;;
59492;SDS011;45497;43.996;22.876;2023-07-08T13:25:18;11.02;;;3.08;;
59492;SDS011;45497;43.996;22.876;2023-07-08T13:33:19;7.70;;;2.63;;
59492;SDS011;45497;43.996;22.876;2023-07-08T13:35:46;9.38;;;2.72;;
59492;SDS011;45497;43.996;22.876;2023-07-08T13:38:14;10.13;;;2.85;;
59492;SDS011;45497;43.996;22.876;2023-07-08T13:40:43;12.23;;;2.80;;
59492;SDS011;45497;43.996;22.876;2023-07-08T13:43:11;7.72;;;2.85;;
59492;SDS011;45497;43.996;22.876;2023-07-08T13:45:36;12.77;;;4.07;;
59492;SDS011;45497;43.996;22.876;2023-07-08T13:48:08;14.43;;;2.97;;
59492;SDS011;45497;43.996;22.876;2023-07-08T13:50:47;12.37;;;3.50;;
59492;SDS011;45497;43.996;22.876;2023-07-08T13:53:22;14.70;;;3.33;;
59492;SDS011;45497;43.996;22.876;2023-07-08T13:55:56;7.10;;;2.30;;
59492;SDS011;45497;43.996;22.876;2023-07-08T13:58:25;12.60;;;3.17;;
59492;SDS011;45497;43.996;22.876;2023-07-08T14:00:53;13.93;;;3.17;;
59492;SDS011;45497;43.996;22.876;2023-07-08T14:03:19;5.60;;;2.50;;
59492;SDS011;45497;43.996;22.876;2023-07-08T14:05:45;10.65;;;2.97;;
59492;SDS011;45497;43.996;22.876;2023-07-08T14:08:14;12.13;;;3.03;;
59492;SDS011;45497;43.996;22.876;2023-07-08T14:10:42;11.32;;;3.22;;
59492;SDS011;45497;43.996;22.876;2023-07-08T14:13:08;20.27;;;4.20;;
59492;SDS011;45497;43.996;22.876;2023-07-08T14:15:35;9.57;;;3.50;;
59492;SDS011;45497;43.996;22.876;2023-07-08T14:18:03;17.85;;;3.90;;
59492;SDS011;45497;43.996;22.876;2023-07-08T14:20:29;13.87;;;3.50;;
59492;SDS011;45497;43.996;22.876;2023-07-08T14:22:54;14.48;;;3.28;;
59492;SDS011;45497;43.996;22.876;2023-07-08T14:25:20;12.57;;;3.28;;
59492;SDS011;45497;43.996;22.876;2023-07-08T14:27:48;6.68;;;2.70;;
59492;SDS011;45497;43.996;22.876;2023-07-08T14:30:17;9.02;;;3.08;;
59492;SDS011;45497;43.996;22.876;2023-07-08T14:32:43;8.05;;;3.10;;
59492;SDS011;45497;43.996;22.876;2023-07-08T14:37:52;10.27;;;3.30;;
59492;SDS011;45497;43.996;22.876;2023-07-08T14:40:24;11.25;;;3.38;;
59492;SDS011;45497;43.996;22.876;2023-07-08T14:43:01;11.50;;;3.67;;
59492;SDS011;45497;43.996;22.876;2023-07-08T14:45:29;13.07;;;3.60;;
59492;SDS011;45497;43.996;22.876;2023-07-08T14:47:57;17.10;;;3.80;;
59492;SDS011;45497;43.996;22.876;2023-07-08T14:50:22;16.48;;;3.88;;
59492;SDS011;45497;43.996;22.876;2023-07-08T14:52:50;12.15;;;3.25;;
59492;SDS011;45497;43.996;22.876;2023-07-08T14:55:16;12.18;;;3.30;;
59492;SDS011;45497;43.996;22.876;2023-07-08T14:57:43;11.07;;;3.07;;
59492;SDS011;45497;43.996;22.876;2023-07-08T15:00:13;10.93;;;3.60;;
59492;SDS011;45497;43.996;22.876;2023-07-08T15:02:41;12.70;;;3.60;;
59492;SDS011;45497;43.996;22.876;2023-07-08T15:05:18;12.48;;;3.10;;
59492;SDS011;45497;43.996;22.876;2023-07-08T15:07:51;15.90;;;4.13;;
59492;SDS011;45497;43.996;22.876;2023-07-08T15:10:19;14.10;;;3.63;;
59492;SDS011;45497;43.996;22.876;2023-07-08T15:12:46;17.23;;;3.90;;
59492;SDS011;45497;43.996;22.876;2023-07-08T15:15:18;10.80;;;3.42;;
59492;SDS011;45497;43.996;22.876;2023-07-08T15:17:51;16.53;;;3.40;;
59492;SDS011;45497;43.996;22.876;2023-07-08T15:20:17;10.00;;;3.03;;
59492;SDS011;45497;43.996;22.876;2023-07-08T15:22:44;11.43;;;3.15;;
59492;SDS011;45497;43.996;22.876;2023-07-08T15:25:10;11.00;;;3.13;;
59492;SDS011;45497;43.996;22.876;2023-07-08T15:27:40;14.40;;;3.40;;
59492;SDS011;45497;43.996;22.876;2023-07-08T15:30:14;10.50;;;3.10;;
59492;SDS011;45497;43.996;22.876;2023-07-08T15:32:42;13.40;;;3.60;;
59492;SDS011;45497;43.996;22.876;2023-07-08T15:35:11;13.13;;;3.57;;
